sensor_id;sensor_type;location;lat;lon;timestamp;P1;durP1;ratioP1;P2;durP2;ratioP2
23370;SDS011;11858;51.056;3.712;2024-01-15T00:01:50;3.90;;;3.70;;
23370;SDS011;11858;51.056;3.712;2024-01-15T00:04:15;4.20;;;4.00;;
23370;SDS011;11858;51.056;3.712;2024-01-15T00:06:41;3.90;;;3.70;;
23370;SDS011;11858;51.056;3.712;2024-01-15T00:09:07;3.95;;;3.75;;
23370;SDS011;11858;51.056;3.712;2024-01-15T00:11:32;4.30;;;4.10;;
23370;SDS011;11858;51.056;3.712;2024-01-15T00:13:58;4.20;;;4.00;;
23370;SDS011;11858;51.056;3.712;2024-01-15T00:16:24;4.25;;;4.05;;
23370;SDS011;11858;51.056;3.712;2024-01-15T00:18:49;4.60;;;4.32;;
23370;SDS011;11858;51.056;3.712;2024-01-15T00:21:15;4.20;;;4.00;;
23370;SDS011;11858;51.056;3.712;2024-01-15T00:23:44;4.40;;;4.20;;
23370;SDS011;11858;51.056;3.712;2024-01-15T00:26:10;4.93;;;4.63;;
23370;SDS011;11858;51.056;3.712;2024-01-15T00:28:36;5.30;;;5.00;;
23370;SDS011;11858;51.056;3.712;2024-01-15T00:31:03;4.80;;;4.60;;
23370;SDS011;11858;51.056;3.712;2024-01-15T00:33:31;4.32;;;4.13;;
23370;SDS011;11858;51.056;3.712;2024-01-15T00:35:57;5.40;;;5.10;;
23370;SDS011;11858;51.056;3.712;2024-01-15T00:38:23;4.60;;;4.30;;
23370;SDS011;11858;51.056;3.712;2024-01-15T00:40:48;4.20;;;4.00;;
23370;SDS011;11858;51.056;3.712;2024-01-15T00:43:14;4.28;;;4.07;;
23370;SDS011;11858;51.056;3.712;2024-01-15T00:45:40;4.20;;;4.00;;
23370;SDS011;11858;51.056;3.712;2024-01-15T00:48:06;5.45;;;5.15;;
23370;SDS011;11858;51.056;3.712;2024-01-15T00:50:32;3.60;;;3.40;;
23370;SDS011;11858;51.056;3.712;2024-01-15T00:52:58;3.85;;;3.65;;
23370;SDS011;11858;51.056;3.712;2024-01-15T00:55:23;3.95;;;3.70;;
23370;SDS011;11858;51.056;3.712;2024-01-15T00:57:50;3.60;;;3.40;;
23370;SDS011;11858;51.056;3.712;2024-01-15T01:00:16;3.70;;;3.50;;
23370;SDS011;11858;51.056;3.712;2024-01-15T01:02:41;3.75;;;3.55;;
23370;SDS011;11858;51.056;3.712;2024-01-15T01:05:07;3.70;;;3.50;;
23370;SDS011;11858;51.056;3.712;2024-01-15T01:07:33;3.92;;;3.72;;
23370;SDS011;11858;51.056;3.712;2024-01-15T01:09:58;3.40;;;3.20;;
23370;SDS011;11858;51.056;3.712;2024-01-15T01:12:24;4.22;;;3.92;;
23370;SDS011;11858;51.056;3.712;2024-01-15T01:14:50;3.28;;;3.15;;
23370;SDS011;11858;51.056;3.712;2024-01-15T01:17:15;4.07;;;3.88;;
23370;SDS011;11858;51.056;3.712;2024-01-15T01:19:41;3.63;;;3.42;;
23370;SDS011;11858;51.056;3.712;2024-01-15T01:22:06;4.40;;;4.00;;
23370;SDS011;11858;51.056;3.712;2024-01-15T01:24:32;6.75;;;4.75;;
23370;SDS011;11858;51.056;3.712;2024-01-15T01:26:58;3.20;;;3.00;;
23370;SDS011;11858;51.056;3.712;2024-01-15T01:29:24;9.13;;;4.43;;
23370;SDS011;11858;51.056;3.712;2024-01-15T01:31:51;3.50;;;3.30;;
23370;SDS011;11858;51.056;3.712;2024-01-15T01:34:16;5.75;;;4.65;;
23370;SDS011;11858;51.056;3.712;2024-01-15T01:36:42;3.63;;;3.42;;
23370;SDS011;11858;51.056;3.712;2024-01-15T01:39:08;4.53;;;4.13;;
23370;SDS011;11858;51.056;3.712;2024-01-15T01:41:34;10.27;;;4.25;;
23370;SDS011;11858;51.056;3.712;2024-01-15T01:44:00;3.05;;;2.95;;
23370;SDS011;11858;51.056;3.712;2024-01-15T01:46:27;5.07;;;4.45;;
23370;SDS011;11858;51.056;3.712;2024-01-15T01:48:53;3.25;;;3.10;;
23370;SDS011;11858;51.056;3.712;2024-01-15T01:51:21;3.67;;;3.47;;
23370;SDS011;11858;51.056;3.712;2024-01-15T01:53:48;3.50;;;3.30;;
23370;SDS011;11858;51.056;3.712;2024-01-15T01:56:14;3.60;;;3.40;;
23370;SDS011;11858;51.056;3.712;2024-01-15T01:58:40;6.90;;;4.55;;
23370;SDS011;11858;51.056;3.712;2024-01-15T02:01:06;4.25;;;3.95;;
23370;SDS011;11858;51.056;3.712;2024-01-15T02:03:32;16.20;;;5.38;;
23370;SDS011;11858;51.056;3.712;2024-01-15T02:05:59;12.55;;;4.68;;
23370;SDS011;11858;51.056;3.712;2024-01-15T02:08:26;3.50;;;3.30;;
23370;SDS011;11858;51.056;3.712;2024-01-15T02:10:51;4.30;;;3.67;;
23370;SDS011;11858;51.056;3.712;2024-01-15T02:13:17;17.73;;;5.63;;
23370;SDS011;11858;51.056;3.712;2024-01-15T02:15:43;3.13;;;3.03;;
23370;SDS011;11858;51.056;3.712;2024-01-15T02:18:09;5.53;;;4.25;;
23370;SDS011;11858;51.056;3.712;2024-01-15T02:20:35;3.70;;;3.50;;
23370;SDS011;11858;51.056;3.712;2024-01-15T02:23:07;4.10;;;3.80;;
23370;SDS011;11858;51.056;3.712;2024-01-15T02:25:40;7.00;;;5.15;;
23370;SDS011;11858;51.056;3.712;2024-01-15T02:28:09;4.57;;;4.18;;
23370;SDS011;11858;51.056;3.712;2024-01-15T02:30:39;3.60;;;3.40;;
23370;SDS011;11858;51.056;3.712;2024-01-15T02:33:09;4.85;;;4.45;;
23370;SDS011;11858;51.056;3.712;2024-01-15T02:35:36;6.97;;;4.97;;
23370;SDS011;11858;51.056;3.712;2024-01-15T02:38:02;4.30;;;4.00;;
23370;SDS011;11858;51.056;3.712;2024-01-15T02:40:28;5.03;;;4.63;;
23370;SDS011;11858;51.056;3.712;2024-01-15T02:42:54;4.60;;;4.30;;
23370;SDS011;11858;51.056;3.712;2024-01-15T02:45:20;3.72;;;3.53;;
23370;SDS011;11858;51.056;3.712;2024-01-15T02:47:46;4.22;;;3.95;;
23370;SDS011;11858;51.056;3.712;2024-01-15T02:50:12;6.55;;;4.57;;
23370;SDS011;11858;51.056;3.712;2024-01-15T02:52:38;4.70;;;4.30;;
23370;SDS011;11858;51.056;3.712;2024-01-15T02:55:04;3.55;;;3.35;;
23370;SDS011;11858;51.056;3.712;2024-01-15T02:57:30;4.43;;;4.13;;
23370;SDS011;11858;51.056;3.712;2024-01-15T02:59:55;6.03;;;5.53;;
23370;SDS011;11858;51.056;3.712;2024-01-15T03:02:21;3.80;;;3.60;;
23370;SDS011;11858;51.056;3.712;2024-01-15T03:04:47;4.20;;;3.97;;
23370;SDS011;11858;51.056;3.712;2024-01-15T03:07:12;4.68;;;4.38;;
23370;SDS011;11858;51.056;3.712;2024-01-15T03:09:38;5.63;;;4.55;;
23370;SDS011;11858;51.056;3.712;2024-01-15T03:12:04;4.68;;;4.35;;
23370;SDS011;11858;51.056;3.712;2024-01-15T03:14:29;5.28;;;4.85;;
23370;SDS011;11858;51.056;3.712;2024-01-15T03:16:55;5.05;;;4.60;;
23370;SDS011;11858;51.056;3.712;2024-01-15T03:19:21;4.75;;;3.92;;
23370;SDS011;11858;51.056;3.712;2024-01-15T03:21:47;4.10;;;3.80;;
23370;SDS011;11858;51.056;3.712;2024-01-15T03:24:12;4.38;;;4.18;;
23370;SDS011;11858;51.056;3.712;2024-01-15T03:26:38;4.45;;;3.95;;
23370;SDS011;11858;51.056;3.712;2024-01-15T03:29:04;4.93;;;4.63;;
23370;SDS011;11858;51.056;3.712;2024-01-15T03:31:29;4.82;;;4.53;;
23370;SDS011;11858;51.056;3.712;2024-01-15T03:33:55;4.40;;;4.10;;
23370;SDS011;11858;51.056;3.712;2024-01-15T03:36:21;4.15;;;3.95;;
23370;SDS011;11858;51.056;3.712;2024-01-15T03:38:47;4.50;;;4.20;;
23370;SDS011;11858;51.056;3.712;2024-01-15T03:41:12;5.65;;;4.80;;
23370;SDS011;11858;51.056;3.712;2024-01-15T03:43:38;3.65;;;3.45;;
23370;SDS011;11858;51.056;3.712;2024-01-15T03:46:05;4.30;;;4.00;;
23370;SDS011;11858;51.056;3.712;2024-01-15T03:48:30;3.50;;;3.28;;
23370;SDS011;11858;51.056;3.712;2024-01-15T03:50:56;7.47;;;4.05;;
23370;SDS011;11858;51.056;3.712;2024-01-15T03:53:22;5.53;;;3.65;;
23370;SDS011;11858;51.056;3.712;2024-01-15T03:55:48;3.50;;;3.30;;
23370;SDS011;11858;51.056;3.712;2024-01-15T03:58:14;3.72;;;3.53;;
23370;SDS011;11858;51.056;3.712;2024-01-15T04:00:40;3.40;;;3.20;;
23370;SDS011;11858;51.056;3.712;2024-01-15T04:03:06;3.70;;;3.50;;
23370;SDS011;11858;51.056;3.712;2024-01-15T04:05:32;4.32;;;4.13;;
23370;SDS011;11858;51.056;3.712;2024-01-15T04:07:58;3.83;;;3.63;;
23370;SDS011;11858;51.056;3.712;2024-01-15T04:10:23;3.70;;;3.50;;
23370;SDS011;11858;51.056;3.712;2024-01-15T04:12:49;3.80;;;3.60;;
23370;SDS011;11858;51.056;3.712;2024-01-15T04:15:15;4.53;;;4.22;;
23370;SDS011;11858;51.056;3.712;2024-01-15T04:17:40;3.95;;;3.75;;
23370;SDS011;11858;51.056;3.712;2024-01-15T04:20:06;4.07;;;3.88;;
23370;SDS011;11858;51.056;3.712;2024-01-15T04:22:33;4.13;;;3.92;;
23370;SDS011;11858;51.056;3.712;2024-01-15T04:25:00;3.92;;;3.72;;
23370;SDS011;11858;51.056;3.712;2024-01-15T04:27:26;3.78;;;3.55;;
23370;SDS011;11858;51.056;3.712;2024-01-15T04:29:52;6.38;;;5.95;;
23370;SDS011;11858;51.056;3.712;2024-01-15T04:32:18;4.00;;;3.80;;
23370;SDS011;11858;51.056;3.712;2024-01-15T04:34:43;3.80;;;3.60;;
23370;SDS011;11858;51.056;3.712;2024-01-15T04:37:09;4.20;;;4.00;;
23370;SDS011;11858;51.056;3.712;2024-01-15T04:39:35;4.63;;;4.32;;
23370;SDS011;11858;51.056;3.712;2024-01-15T04:42:00;3.80;;;3.60;;
23370;SDS011;11858;51.056;3.712;2024-01-15T04:44:26;4.45;;;4.25;;
23370;SDS011;11858;51.056;3.712;2024-01-15T04:46:52;4.15;;;3.95;;
23370;SDS011;11858;51.056;3.712;2024-01-15T04:49:17;3.70;;;3.50;;
23370;SDS011;11858;51.056;3.712;2024-01-15T04:51:43;3.83;;;3.63;;
23370;SDS011;11858;51.056;3.712;2024-01-15T04:54:09;3.58;;;3.38;;
23370;SDS011;11858;51.056;3.712;2024-01-15T04:56:34;4.20;;;4.00;;
23370;SDS011;11858;51.056;3.712;2024-01-15T04:59:00;3.70;;;3.50;;
23370;SDS011;11858;51.056;3.712;2024-01-15T05:01:29;4.85;;;4.55;;
23370;SDS011;11858;51.056;3.712;2024-01-15T05:03:56;4.03;;;3.83;;
23370;SDS011;11858;51.056;3.712;2024-01-15T05:06:21;4.15;;;3.95;;
23370;SDS011;11858;51.056;3.712;2024-01-15T05:08:47;4.10;;;3.90;;
23370;SDS011;11858;51.056;3.712;2024-01-15T05:11:13;3.90;;;3.70;;
23370;SDS011;11858;51.056;3.712;2024-01-15T05:13:38;7.85;;;4.22;;
23370;SDS011;11858;51.056;3.712;2024-01-15T05:16:04;4.18;;;3.88;;
23370;SDS011;11858;51.056;3.712;2024-01-15T05:18:30;5.03;;;4.72;;
23370;SDS011;11858;51.056;3.712;2024-01-15T05:20:55;5.50;;;4.95;;
23370;SDS011;11858;51.056;3.712;2024-01-15T05:23:21;4.40;;;3.95;;
23370;SDS011;11858;51.056;3.712;2024-01-15T05:25:46;6.03;;;4.10;;
23370;SDS011;11858;51.056;3.712;2024-01-15T05:28:13;3.88;;;3.67;;
23370;SDS011;11858;51.056;3.712;2024-01-15T05:30:39;3.90;;;3.63;;
23370;SDS011;11858;51.056;3.712;2024-01-15T05:33:05;4.60;;;4.28;;
23370;SDS011;11858;51.056;3.712;2024-01-15T05:35:32;4.53;;;4.20;;
23370;SDS011;11858;51.056;3.712;2024-01-15T05:37:58;3.70;;;3.50;;
23370;SDS011;11858;51.056;3.712;2024-01-15T05:40:23;4.40;;;3.90;;
23370;SDS011;11858;51.056;3.712;2024-01-15T05:42:49;4.10;;;3.85;;
23370;SDS011;11858;51.056;3.712;2024-01-15T05:45:15;3.90;;;3.70;;
23370;SDS011;11858;51.056;3.712;2024-01-15T05:47:41;43.80;;;5.93;;
23370;SDS011;11858;51.056;3.712;2024-01-15T05:50:06;3.20;;;3.10;;
23370;SDS011;11858;51.056;3.712;2024-01-15T05:52:33;3.80;;;3.53;;
23370;SDS011;11858;51.056;3.712;2024-01-15T05:54:59;3.20;;;3.10;;
23370;SDS011;11858;51.056;3.712;2024-01-15T05:57:24;3.42;;;3.30;;
23370;SDS011;11858;51.056;3.712;2024-01-15T05:59:50;3.72;;;3.53;;
23370;SDS011;11858;51.056;3.712;2024-01-15T06:02:15;3.10;;;3.00;;
23370;SDS011;11858;51.056;3.712;2024-01-15T06:04:41;3.22;;;3.13;;
23370;SDS011;11858;51.056;3.712;2024-01-15T06:07:07;5.55;;;4.07;;
23370;SDS011;11858;51.056;3.712;2024-01-15T06:09:32;3.60;;;3.40;;
23370;SDS011;11858;51.056;3.712;2024-01-15T06:11:58;3.95;;;3.75;;
23370;SDS011;11858;51.056;3.712;2024-01-15T06:14:24;4.97;;;4.68;;
23370;SDS011;11858;51.056;3.712;2024-01-15T06:16:49;4.90;;;4.40;;
23370;SDS011;11858;51.056;3.712;2024-01-15T06:19:15;4.03;;;3.83;;
23370;SDS011;11858;51.056;3.712;2024-01-15T06:21:41;4.47;;;4.28;;
23370;SDS011;11858;51.056;3.712;2024-01-15T06:24:06;4.30;;;4.10;;
23370;SDS011;11858;51.056;3.712;2024-01-15T06:26:32;4.20;;;4.00;;
23370;SDS011;11858;51.056;3.712;2024-01-15T06:28:58;4.85;;;4.65;;
23370;SDS011;11858;51.056;3.712;2024-01-15T06:31:23;4.25;;;4.05;;
23370;SDS011;11858;51.056;3.712;2024-01-15T06:33:49;4.75;;;4.55;;
23370;SDS011;11858;51.056;3.712;2024-01-15T06:36:15;4.82;;;4.63;;
23370;SDS011;11858;51.056;3.712;2024-01-15T06:38:43;4.88;;;4.68;;
23370;SDS011;11858;51.056;3.712;2024-01-15T06:41:09;5.95;;;5.55;;
23370;SDS011;11858;51.056;3.712;2024-01-15T06:43:35;4.50;;;4.30;;
23370;SDS011;11858;51.056;3.712;2024-01-15T06:46:00;4.05;;;3.85;;
23370;SDS011;11858;51.056;3.712;2024-01-15T06:48:26;4.30;;;4.10;;
23370;SDS011;11858;51.056;3.712;2024-01-15T06:50:52;4.20;;;4.00;;
23370;SDS011;11858;51.056;3.712;2024-01-15T06:53:17;5.65;;;5.32;;
23370;SDS011;11858;51.056;3.712;2024-01-15T06:55:43;4.20;;;4.00;;
23370;SDS011;11858;51.056;3.712;2024-01-15T06:58:09;4.75;;;4.55;;
23370;SDS011;11858;51.056;3.712;2024-01-15T07:00:35;4.50;;;4.30;;
23370;SDS011;11858;51.056;3.712;2024-01-15T07:03:00;4.40;;;4.20;;
23370;SDS011;11858;51.056;3.712;2024-01-15T07:05:26;4.10;;;3.90;;
23370;SDS011;11858;51.056;3.712;2024-01-15T07:07:52;4.57;;;4.38;;
23370;SDS011;11858;51.056;3.712;2024-01-15T07:10:17;4.63;;;4.43;;
23370;SDS011;11858;51.056;3.712;2024-01-15T07:12:43;4.30;;;4.10;;
23370;SDS011;11858;51.056;3.712;2024-01-15T07:15:09;4.78;;;4.47;;
23370;SDS011;11858;51.056;3.712;2024-01-15T07:17:35;4.20;;;4.00;;
23370;SDS011;11858;51.056;3.712;2024-01-15T07:20:04;5.40;;;5.00;;
23370;SDS011;11858;51.056;3.712;2024-01-15T07:22:32;4.47;;;4.28;;
23370;SDS011;11858;51.056;3.712;2024-01-15T07:24:58;4.63;;;4.43;;
23370;SDS011;11858;51.056;3.712;2024-01-15T07:27:24;4.45;;;4.25;;
23370;SDS011;11858;51.056;3.712;2024-01-15T07:29:50;4.57;;;4.38;;
23370;SDS011;11858;51.056;3.712;2024-01-15T07:32:16;4.75;;;4.55;;
23370;SDS011;11858;51.056;3.712;2024-01-15T07:34:42;4.50;;;4.30;;
23370;SDS011;11858;51.056;3.712;2024-01-15T07:37:07;4.90;;;4.70;;
23370;SDS011;11858;51.056;3.712;2024-01-15T07:39:33;5.18;;;4.88;;
23370;SDS011;11858;51.056;3.712;2024-01-15T07:41:59;4.53;;;4.32;;
23370;SDS011;11858;51.056;3.712;2024-01-15T07:44:25;4.90;;;4.70;;
23370;SDS011;11858;51.056;3.712;2024-01-15T07:46:51;4.82;;;4.63;;
23370;SDS011;11858;51.056;3.712;2024-01-15T07:49:16;5.20;;;4.90;;
23370;SDS011;11858;51.056;3.712;2024-01-15T07:51:42;5.40;;;5.10;;
23370;SDS011;11858;51.056;3.712;2024-01-15T07:54:11;5.40;;;5.10;;
23370;SDS011;11858;51.056;3.712;2024-01-15T07:59:24;6.13;;;5.72;;
23370;SDS011;11858;51.056;3.712;2024-01-15T08:01:51;6.13;;;5.82;;
23370;SDS011;11858;51.056;3.712;2024-01-15T08:04:17;5.70;;;5.40;;
23370;SDS011;11858;51.056;3.712;2024-01-15T08:06:43;6.10;;;5.80;;
23370;SDS011;11858;51.056;3.712;2024-01-15T08:09:08;6.05;;;5.75;;
23370;SDS011;11858;51.056;3.712;2024-01-15T08:11:34;6.38;;;6.07;;
23370;SDS011;11858;51.056;3.712;2024-01-15T08:14:00;6.78;;;6.40;;
23370;SDS011;11858;51.056;3.712;2024-01-15T08:16:26;6.90;;;6.50;;
23370;SDS011;11858;51.056;3.712;2024-01-15T08:18:52;7.47;;;7.07;;
23370;SDS011;11858;51.056;3.712;2024-01-15T08:21:18;7.70;;;7.30;;
23370;SDS011;11858;51.056;3.712;2024-01-15T08:23:44;8.10;;;7.55;;
23370;SDS011;11858;51.056;3.712;2024-01-15T08:26:10;7.28;;;6.88;;
23370;SDS011;11858;51.056;3.712;2024-01-15T08:28:36;8.07;;;7.63;;
23370;SDS011;11858;51.056;3.712;2024-01-15T08:31:02;7.40;;;7.00;;
23370;SDS011;11858;51.056;3.712;2024-01-15T08:33:28;7.50;;;7.10;;
23370;SDS011;11858;51.056;3.712;2024-01-15T08:35:54;7.82;;;7.43;;
23370;SDS011;11858;51.056;3.712;2024-01-15T08:38:20;7.80;;;7.40;;
23370;SDS011;11858;51.056;3.712;2024-01-15T08:40:46;7.40;;;7.00;;
23370;SDS011;11858;51.056;3.712;2024-01-15T08:43:11;8.07;;;7.68;;
23370;SDS011;11858;51.056;3.712;2024-01-15T08:45:38;8.60;;;8.10;;
23370;SDS011;11858;51.056;3.712;2024-01-15T08:48:03;8.45;;;7.95;;
23370;SDS011;11858;51.056;3.712;2024-01-15T08:50:29;8.82;;;8.32;;
23370;SDS011;11858;51.056;3.712;2024-01-15T08:52:57;8.82;;;8.32;;
23370;SDS011;11858;51.056;3.712;2024-01-15T08:55:22;8.73;;;8.23;;
23370;SDS011;11858;51.056;3.712;2024-01-15T08:57:48;9.35;;;8.85;;
23370;SDS011;11858;51.056;3.712;2024-01-15T09:00:14;8.90;;;8.40;;
23370;SDS011;11858;51.056;3.712;2024-01-15T09:02:41;9.48;;;8.98;;
23370;SDS011;11858;51.056;3.712;2024-01-15T09:05:08;10.23;;;9.63;;
23370;SDS011;11858;51.056;3.712;2024-01-15T09:07:33;9.77;;;9.27;;
23370;SDS011;11858;51.056;3.712;2024-01-15T09:09:59;9.73;;;9.23;;
23370;SDS011;11858;51.056;3.712;2024-01-15T09:12:25;11.35;;;10.60;;
23370;SDS011;11858;51.056;3.712;2024-01-15T09:14:51;10.40;;;9.80;;
23370;SDS011;11858;51.056;3.712;2024-01-15T09:17:18;11.13;;;10.50;;
23370;SDS011;11858;51.056;3.712;2024-01-15T09:19:50;11.10;;;10.48;;
23370;SDS011;11858;51.056;3.712;2024-01-15T09:22:16;11.45;;;10.73;;
23370;SDS011;11858;51.056;3.712;2024-01-15T09:24:43;10.75;;;10.15;;
23370;SDS011;11858;51.056;3.712;2024-01-15T09:27:09;10.90;;;10.20;;
23370;SDS011;11858;51.056;3.712;2024-01-15T09:29:35;11.65;;;10.73;;
23370;SDS011;11858;51.056;3.712;2024-01-15T09:32:07;11.05;;;10.35;;
23370;SDS011;11858;51.056;3.712;2024-01-15T09:34:35;11.20;;;10.50;;
23370;SDS011;11858;51.056;3.712;2024-01-15T09:37:01;10.32;;;9.77;;
23370;SDS011;11858;51.056;3.712;2024-01-15T09:39:27;11.60;;;11.00;;
23370;SDS011;11858;51.056;3.712;2024-01-15T09:41:53;11.52;;;10.82;;
23370;SDS011;11858;51.056;3.712;2024-01-15T09:44:20;12.48;;;11.77;;
23370;SDS011;11858;51.056;3.712;2024-01-15T09:46:46;13.60;;;12.43;;
23370;SDS011;11858;51.056;3.712;2024-01-15T09:49:15;12.15;;;11.45;;
23370;SDS011;11858;51.056;3.712;2024-01-15T09:51:41;12.52;;;11.77;;
23370;SDS011;11858;51.056;3.712;2024-01-15T09:54:08;13.05;;;12.30;;
23370;SDS011;11858;51.056;3.712;2024-01-15T09:56:34;11.38;;;10.77;;
23370;SDS011;11858;51.056;3.712;2024-01-15T09:59:00;13.07;;;12.30;;
23370;SDS011;11858;51.056;3.712;2024-01-15T10:01:26;13.90;;;13.10;;
23370;SDS011;11858;51.056;3.712;2024-01-15T10:03:52;15.27;;;14.38;;
23370;SDS011;11858;51.056;3.712;2024-01-15T10:06:19;15.35;;;14.45;;
23370;SDS011;11858;51.056;3.712;2024-01-15T10:08:47;16.55;;;15.55;;
23370;SDS011;11858;51.056;3.712;2024-01-15T10:11:13;17.75;;;16.65;;
23370;SDS011;11858;51.056;3.712;2024-01-15T10:13:39;17.80;;;16.70;;
23370;SDS011;11858;51.056;3.712;2024-01-15T10:16:05;17.90;;;16.80;;
23370;SDS011;11858;51.056;3.712;2024-01-15T10:18:31;18.25;;;17.10;;
23370;SDS011;11858;51.056;3.712;2024-01-15T10:20:57;18.50;;;17.30;;
23370;SDS011;11858;51.056;3.712;2024-01-15T10:23:24;18.58;;;17.40;;
23370;SDS011;11858;51.056;3.712;2024-01-15T10:25:50;18.90;;;17.70;;
23370;SDS011;11858;51.056;3.712;2024-01-15T10:28:18;19.02;;;17.83;;
23370;SDS011;11858;51.056;3.712;2024-01-15T10:30:44;19.27;;;18.08;;
23370;SDS011;11858;51.056;3.712;2024-01-15T10:33:10;19.08;;;17.80;;
23370;SDS011;11858;51.056;3.712;2024-01-15T10:35:37;19.65;;;18.35;;
23370;SDS011;11858;51.056;3.712;2024-01-15T10:38:03;19.70;;;18.50;;
23370;SDS011;11858;51.056;3.712;2024-01-15T10:40:30;20.00;;;18.60;;
23370;SDS011;11858;51.056;3.712;2024-01-15T10:42:57;18.98;;;17.77;;
23370;SDS011;11858;51.056;3.712;2024-01-15T10:45:22;18.55;;;17.45;;
23370;SDS011;11858;51.056;3.712;2024-01-15T10:47:48;20.75;;;18.88;;
23370;SDS011;11858;51.056;3.712;2024-01-15T10:50:14;19.27;;;17.98;;
23370;SDS011;11858;51.056;3.712;2024-01-15T10:52:41;18.92;;;17.73;;
23370;SDS011;11858;51.056;3.712;2024-01-15T10:55:10;19.15;;;17.95;;
23370;SDS011;11858;51.056;3.712;2024-01-15T10:57:37;18.90;;;17.70;;
23370;SDS011;11858;51.056;3.712;2024-01-15T11:00:03;19.00;;;17.80;;
23370;SDS011;11858;51.056;3.712;2024-01-15T11:02:34;18.90;;;17.70;;
23370;SDS011;11858;51.056;3.712;2024-01-15T11:05:01;18.77;;;17.63;;
23370;SDS011;11858;51.056;3.712;2024-01-15T11:07:29;19.02;;;17.83;;
23370;SDS011;11858;51.056;3.712;2024-01-15T11:09:55;20.10;;;18.80;;
23370;SDS011;11858;51.056;3.712;2024-01-15T11:12:22;20.83;;;19.25;;
23370;SDS011;11858;51.056;3.712;2024-01-15T11:14:49;19.60;;;18.33;;
23370;SDS011;11858;51.056;3.712;2024-01-15T11:17:15;19.60;;;18.40;;
23370;SDS011;11858;51.056;3.712;2024-01-15T11:19:46;19.70;;;18.50;;
23370;SDS011;11858;51.056;3.712;2024-01-15T11:27:49;20.97;;;19.00;;
23370;SDS011;11858;51.056;3.712;2024-01-15T11:30:16;19.48;;;18.27;;
23370;SDS011;11858;51.056;3.712;2024-01-15T11:32:43;19.80;;;18.40;;
23370;SDS011;11858;51.056;3.712;2024-01-15T11:35:12;18.90;;;17.70;;
23370;SDS011;11858;51.056;3.712;2024-01-15T11:40:19;19.25;;;18.05;;
23370;SDS011;11858;51.056;3.712;2024-01-15T11:43:02;19.38;;;18.17;;
23370;SDS011;11858;51.056;3.712;2024-01-15T11:45:28;19.77;;;18.25;;
23370;SDS011;11858;51.056;3.712;2024-01-15T11:50:24;19.17;;;17.98;;
23370;SDS011;11858;51.056;3.712;2024-01-15T11:53:00;19.48;;;18.27;;
23370;SDS011;11858;51.056;3.712;2024-01-15T11:55:27;19.40;;;18.02;;
23370;SDS011;11858;51.056;3.712;2024-01-15T11:57:58;18.40;;;17.30;;
23370;SDS011;11858;51.056;3.712;2024-01-15T12:00:26;19.20;;;18.00;;
23370;SDS011;11858;51.056;3.712;2024-01-15T12:02:53;20.13;;;18.38;;
23370;SDS011;11858;51.056;3.712;2024-01-15T12:05:19;19.70;;;18.50;;
23370;SDS011;11858;51.056;3.712;2024-01-15T12:07:46;19.60;;;18.40;;
23370;SDS011;11858;51.056;3.712;2024-01-15T12:10:17;20.42;;;18.58;;
23370;SDS011;11858;51.056;3.712;2024-01-15T12:12:51;20.02;;;18.77;;
23370;SDS011;11858;51.056;3.712;2024-01-15T12:15:24;19.35;;;18.13;;
23370;SDS011;11858;51.056;3.712;2024-01-15T12:17:50;20.38;;;19.08;;
23370;SDS011;11858;51.056;3.712;2024-01-15T12:20:17;19.80;;;18.60;;
23370;SDS011;11858;51.056;3.712;2024-01-15T12:22:43;19.35;;;18.15;;
23370;SDS011;11858;51.056;3.712;2024-01-15T12:25:09;19.50;;;18.20;;
23370;SDS011;11858;51.056;3.712;2024-01-15T12:27:35;20.00;;;18.50;;
23370;SDS011;11858;51.056;3.712;2024-01-15T12:30:01;19.40;;;18.20;;
23370;SDS011;11858;51.056;3.712;2024-01-15T12:32:26;20.20;;;18.83;;
23370;SDS011;11858;51.056;3.712;2024-01-15T12:34:52;18.73;;;17.40;;
23370;SDS011;11858;51.056;3.712;2024-01-15T12:37:18;19.08;;;17.73;;
23370;SDS011;11858;51.056;3.712;2024-01-15T12:39:44;20.45;;;18.77;;
23370;SDS011;11858;51.056;3.712;2024-01-15T12:42:10;19.15;;;17.98;;
23370;SDS011;11858;51.056;3.712;2024-01-15T12:44:36;19.23;;;17.92;;
23370;SDS011;11858;51.056;3.712;2024-01-15T12:47:05;19.00;;;17.88;;
23370;SDS011;11858;51.056;3.712;2024-01-15T12:49:31;19.25;;;18.05;;
23370;SDS011;11858;51.056;3.712;2024-01-15T12:51:57;19.15;;;17.95;;
23370;SDS011;11858;51.056;3.712;2024-01-15T12:54:24;19.92;;;18.65;;
23370;SDS011;11858;51.056;3.712;2024-01-15T12:56:50;19.48;;;18.27;;
23370;SDS011;11858;51.056;3.712;2024-01-15T12:59:16;20.63;;;19.20;;
23370;SDS011;11858;51.056;3.712;2024-01-15T13:01:43;20.48;;;18.95;;
23370;SDS011;11858;51.056;3.712;2024-01-15T13:04:09;18.65;;;17.55;;
23370;SDS011;11858;51.056;3.712;2024-01-15T13:06:35;20.02;;;18.50;;
23370;SDS011;11858;51.056;3.712;2024-01-15T13:09:02;19.83;;;18.52;;
23370;SDS011;11858;51.056;3.712;2024-01-15T13:11:33;19.77;;;18.25;;
23370;SDS011;11858;51.056;3.712;2024-01-15T13:13:59;19.40;;;18.10;;
23370;SDS011;11858;51.056;3.712;2024-01-15T13:16:24;19.98;;;18.65;;
23370;SDS011;11858;51.056;3.712;2024-01-15T13:18:53;19.92;;;18.42;;
23370;SDS011;11858;51.056;3.712;2024-01-15T13:21:19;20.48;;;19.08;;
23370;SDS011;11858;51.056;3.712;2024-01-15T13:23:45;19.42;;;18.23;;
23370;SDS011;11858;51.056;3.712;2024-01-15T13:26:11;20.30;;;18.90;;
23370;SDS011;11858;51.056;3.712;2024-01-15T13:28:37;19.67;;;18.48;;
23370;SDS011;11858;51.056;3.712;2024-01-15T13:31:03;19.70;;;18.50;;
23370;SDS011;11858;51.056;3.712;2024-01-15T13:33:29;19.52;;;18.30;;
23370;SDS011;11858;51.056;3.712;2024-01-15T13:35:55;20.13;;;18.90;;
23370;SDS011;11858;51.056;3.712;2024-01-15T13:38:21;19.50;;;18.30;;
23370;SDS011;11858;51.056;3.712;2024-01-15T13:40:46;19.73;;;18.52;;
23370;SDS011;11858;51.056;3.712;2024-01-15T13:43:12;21.30;;;19.15;;
23370;SDS011;11858;51.056;3.712;2024-01-15T13:45:39;19.80;;;18.60;;
23370;SDS011;11858;51.056;3.712;2024-01-15T13:48:08;19.20;;;18.00;;
23370;SDS011;11858;51.056;3.712;2024-01-15T13:50:34;19.90;;;18.70;;
23370;SDS011;11858;51.056;3.712;2024-01-15T13:53:03;19.65;;;18.45;;
23370;SDS011;11858;51.056;3.712;2024-01-15T13:55:29;20.35;;;18.83;;
23370;SDS011;11858;51.056;3.712;2024-01-15T13:57:55;18.60;;;17.50;;
23370;SDS011;11858;51.056;3.712;2024-01-15T14:00:21;19.92;;;18.23;;
23370;SDS011;11858;51.056;3.712;2024-01-15T14:02:48;18.00;;;16.90;;
23370;SDS011;11858;51.056;3.712;2024-01-15T14:05:14;18.25;;;17.15;;
23370;SDS011;11858;51.056;3.712;2024-01-15T14:07:40;19.25;;;17.55;;
23370;SDS011;11858;51.056;3.712;2024-01-15T14:10:06;19.70;;;18.50;;
23370;SDS011;11858;51.056;3.712;2024-01-15T14:12:33;19.40;;;18.20;;
23370;SDS011;11858;51.056;3.712;2024-01-15T14:14:59;20.10;;;18.80;;
23370;SDS011;11858;51.056;3.712;2024-01-15T14:17:25;19.70;;;18.50;;
23370;SDS011;11858;51.056;3.712;2024-01-15T14:19:51;19.77;;;18.35;;
23370;SDS011;11858;51.056;3.712;2024-01-15T14:22:16;19.70;;;18.50;;
23370;SDS011;11858;51.056;3.712;2024-01-15T14:24:42;20.15;;;18.85;;
23370;SDS011;11858;51.056;3.712;2024-01-15T14:27:08;19.50;;;18.30;;
23370;SDS011;11858;51.056;3.712;2024-01-15T14:29:34;20.42;;;19.02;;
23370;SDS011;11858;51.056;3.712;2024-01-15T14:32:01;19.88;;;18.67;;
23370;SDS011;11858;51.056;3.712;2024-01-15T14:34:26;19.77;;;18.58;;
23370;SDS011;11858;51.056;3.712;2024-01-15T14:36:52;20.40;;;19.10;;
23370;SDS011;11858;51.056;3.712;2024-01-15T14:39:23;20.83;;;19.50;;
23370;SDS011;11858;51.056;3.712;2024-01-15T14:41:50;19.73;;;18.52;;
23370;SDS011;11858;51.056;3.712;2024-01-15T14:44:16;19.70;;;18.30;;
23370;SDS011;11858;51.056;3.712;2024-01-15T14:46:42;20.13;;;18.27;;